sensor_id;sensor_type;location;lat;lon;timestamp;pressure;altitude;pressure_sealevel;temperature;humidity
24336;BME280;33098;52.400;16.880;2023-01-15T00:02:23;99451.73;;;7.88;79.62
24336;BME280;33098;52.400;16.880;2023-01-15T00:04:50;99453.96;;;7.91;79.64
24336;BME280;33098;52.400;16.880;2023-01-15T00:07:17;99444.61;;;7.93;79.41
24336;BME280;33098;52.400;16.880;2023-01-15T00:09:43;99448.11;;;7.94;79.38
24336;BME280;33098;52.400;16.880;2023-01-15T00:12:10;99440.99;;;7.96;79.31
24336;BME280;33098;52.400;16.880;2023-01-15T00:14:36;99433.63;;;7.95;78.86
24336;BME280;33098;52.400;16.880;2023-01-15T00:17:03;99434.41;;;7.95;79.13
24336;BME280;33098;52.400;16.880;2023-01-15T00:19:30;99436.20;;;7.96;78.87
24336;BME280;33098;52.400;16.880;2023-01-15T00:21:57;99421.22;;;7.94;78.87
24336;BME280;33098;52.400;16.880;2023-01-15T00:24:23;99418.86;;;7.97;78.98
24336;BME280;33098;52.400;16.880;2023-01-15T00:27:09;99421.34;;;8.01;79.07
24336;BME280;33098;52.400;16.880;2023-01-15T00:29:55;99424.34;;;7.99;78.67
24336;BME280;33098;52.400;16.880;2023-01-15T00:32:21;99419.00;;;7.97;78.72
24336;BME280;33098;52.400;16.880;2023-01-15T00:34:48;99408.55;;;7.99;78.94
24336;BME280;33098;52.400;16.880;2023-01-15T00:37:17;99390.08;;;8.03;78.99
24336;BME280;33098;52.400;16.880;2023-01-15T00:39:44;99379.81;;;8.10;79.27
24336;BME280;33098;52.400;16.880;2023-01-15T00:42:11;99379.36;;;8.19;79.05
24336;BME280;33098;52.400;16.880;2023-01-15T00:44:37;99371.61;;;8.18;78.83
24336;BME280;33098;52.400;16.880;2023-01-15T00:47:08;99372.21;;;8.20;78.68
24336;BME280;33098;52.400;16.880;2023-01-15T00:49:41;99370.77;;;8.18;78.67
24336;BME280;33098;52.400;16.880;2023-01-15T00:52:08;99361.30;;;8.23;78.83
24336;BME280;33098;52.400;16.880;2023-01-15T00:54:35;99359.98;;;8.28;78.57
24336;BME280;33098;52.400;16.880;2023-01-15T00:57:02;99363.11;;;8.29;78.41
24336;BME280;33098;52.400;16.880;2023-01-15T00:59:29;99371.33;;;8.30;78.44
24336;BME280;33098;52.400;16.880;2023-01-15T01:01:56;99363.03;;;8.28;78.10
24336;BME280;33098;52.400;16.880;2023-01-15T01:04:22;99369.58;;;8.26;78.00
24336;BME280;33098;52.400;16.880;2023-01-15T01:06:49;99368.03;;;8.27;78.33
24336;BME280;33098;52.400;16.880;2023-01-15T01:09:16;99361.96;;;8.32;78.39
24336;BME280;33098;52.400;16.880;2023-01-15T01:11:44;99353.05;;;8.36;78.33
24336;BME280;33098;52.400;16.880;2023-01-15T01:14:12;99344.56;;;8.37;78.41
24336;BME280;33098;52.400;16.880;2023-01-15T01:16:40;99345.48;;;8.43;78.53
24336;BME280;33098;52.400;16.880;2023-01-15T01:19:13;99336.36;;;8.44;78.47
24336;BME280;33098;52.400;16.880;2023-01-15T01:21:42;99330.59;;;8.48;78.39
24336;BME280;33098;52.400;16.880;2023-01-15T01:24:14;99333.06;;;8.52;78.44
24336;BME280;33098;52.400;16.880;2023-01-15T01:26:41;99340.23;;;8.55;78.14
24336;BME280;33098;52.400;16.880;2023-01-15T01:29:16;99334.98;;;8.58;78.29
24336;BME280;33098;52.400;16.880;2023-01-15T01:31:43;99319.02;;;8.59;77.78
24336;BME280;33098;52.400;16.880;2023-01-15T01:34:11;99321.67;;;8.57;77.85
24336;BME280;33098;52.400;16.880;2023-01-15T01:36:39;99325.08;;;8.56;77.50
24336;BME280;33098;52.400;16.880;2023-01-15T01:39:12;99313.16;;;8.55;77.82
24336;BME280;33098;52.400;16.880;2023-01-15T01:41:38;99306.68;;;8.58;77.85
24336;BME280;33098;52.400;16.880;2023-01-15T01:44:53;99304.79;;;8.60;77.99
24336;BME280;33098;52.400;16.880;2023-01-15T01:46:53;99291.84;;;8.62;77.92
24336;BME280;33098;52.400;16.880;2023-01-15T01:49:21;99289.20;;;8.62;77.91
24336;BME280;33098;52.400;16.880;2023-01-15T01:51:52;99291.76;;;8.63;77.95
24336;BME280;33098;52.400;16.880;2023-01-15T01:54:23;99285.48;;;8.66;78.03
24336;BME280;33098;52.400;16.880;2023-01-15T01:56:51;99283.61;;;8.67;77.99
24336;BME280;33098;52.400;16.880;2023-01-15T01:59:20;99279.67;;;8.70;78.04
24336;BME280;33098;52.400;16.880;2023-01-15T02:01:48;99284.63;;;8.74;78.11
24336;BME280;33098;52.400;16.880;2023-01-15T02:04:21;99278.87;;;8.79;77.94
24336;BME280;33098;52.400;16.880;2023-01-15T02:06:50;99270.09;;;8.82;78.01
24336;BME280;33098;52.400;16.880;2023-01-15T02:09:18;99263.13;;;8.85;77.86
24336;BME280;33098;52.400;16.880;2023-01-15T02:11:44;99249.67;;;8.85;77.23
24336;BME280;33098;52.400;16.880;2023-01-15T02:14:16;99251.42;;;8.81;77.23
24336;BME280;33098;52.400;16.880;2023-01-15T02:17:03;99241.23;;;8.80;77.33
24336;BME280;33098;52.400;16.880;2023-01-15T02:28:27;99248.87;;;8.78;77.29
24336;BME280;33098;52.400;16.880;2023-01-15T02:31:03;99246.67;;;8.79;77.39
24336;BME280;33098;52.400;16.880;2023-01-15T02:33:46;99244.02;;;8.83;77.74
24336;BME280;33098;52.400;16.880;2023-01-15T02:36:16;99227.73;;;8.85;77.87
24336;BME280;33098;52.400;16.880;2023-01-15T02:38:47;99218.15;;;8.91;77.97
24336;BME280;33098;52.400;16.880;2023-01-15T02:41:22;99213.89;;;8.91;78.01
24336;BME280;33098;52.400;16.880;2023-01-15T02:43:53;99209.74;;;8.90;77.91
24336;BME280;33098;52.400;16.880;2023-01-15T02:46:29;99202.17;;;8.92;78.02
24336;BME280;33098;52.400;16.880;2023-01-15T02:48:58;99201.33;;;8.95;78.00
24336;BME280;33098;52.400;16.880;2023-01-15T02:51:36;99209.45;;;8.97;78.06
24336;BME280;33098;52.400;16.880;2023-01-15T02:54:09;99214.59;;;8.99;77.88
24336;BME280;33098;52.400;16.880;2023-01-15T02:56:39;99210.73;;;8.97;77.81
24336;BME280;33098;52.400;16.880;2023-01-15T02:59:13;99207.02;;;8.98;77.85
24336;BME280;33098;52.400;16.880;2023-01-15T03:01:47;99204.16;;;8.98;77.70
24336;BME280;33098;52.400;16.880;2023-01-15T03:04:24;99207.52;;;9.01;77.58
24336;BME280;33098;52.400;16.880;2023-01-15T03:07:11;99206.61;;;8.97;77.35
24336;BME280;33098;52.400;16.880;2023-01-15T03:09:39;99206.14;;;8.95;77.31
24336;BME280;33098;52.400;16.880;2023-01-15T03:12:21;99209.43;;;8.95;77.55
24336;BME280;33098;52.400;16.880;2023-01-15T03:15:12;99209.52;;;8.99;77.53
24336;BME280;33098;52.400;16.880;2023-01-15T03:18:18;99205.79;;;9.02;77.64
24336;BME280;33098;52.400;16.880;2023-01-15T03:20:50;99199.93;;;9.03;77.64
24336;BME280;33098;52.400;16.880;2023-01-15T03:23:22;99194.09;;;9.01;77.74
24336;BME280;33098;52.400;16.880;2023-01-15T03:25:50;99193.88;;;8.97;77.70
24336;BME280;33098;52.400;16.880;2023-01-15T03:28:21;99183.11;;;8.97;77.79
24336;BME280;33098;52.400;16.880;2023-01-15T03:30:49;99172.60;;;8.94;77.75
24336;BME280;33098;52.400;16.880;2023-01-15T03:33:16;99175.98;;;8.93;77.77
24336;BME280;33098;52.400;16.880;2023-01-15T03:35:45;99169.42;;;8.94;78.04
24336;BME280;33098;52.400;16.880;2023-01-15T03:38:18;99168.08;;;8.98;78.18
24336;BME280;33098;52.400;16.880;2023-01-15T03:49:59;99160.51;;;9.00;78.06
24336;BME280;33098;52.400;16.880;2023-01-15T03:52:42;99164.92;;;9.06;78.13
24336;BME280;33098;52.400;16.880;2023-01-15T03:55:21;99153.79;;;9.06;77.91
24336;BME280;33098;52.400;16.880;2023-01-15T04:00:38;99144.17;;;9.05;77.96
24336;BME280;33098;52.400;16.880;2023-01-15T04:03:08;99136.37;;;9.04;77.98
24336;BME280;33098;52.400;16.880;2023-01-15T04:05:36;99130.16;;;9.04;77.96
24336;BME280;33098;52.400;16.880;2023-01-15T04:08:06;99129.94;;;9.08;78.17
24336;BME280;33098;52.400;16.880;2023-01-15T04:10:32;99140.09;;;9.07;77.87
24336;BME280;33098;52.400;16.880;2023-01-15T04:13:01;99130.69;;;8.99;77.87
24336;BME280;33098;52.400;16.880;2023-01-15T04:15:27;99121.34;;;9.03;78.17
24336;BME280;33098;52.400;16.880;2023-01-15T04:17:54;99117.42;;;9.05;78.31
24336;BME280;33098;52.400;16.880;2023-01-15T04:20:22;99119.89;;;9.07;78.12
24336;BME280;33098;52.400;16.880;2023-01-15T04:22:49;99118.08;;;9.06;78.10
24336;BME280;33098;52.400;16.880;2023-01-15T04:25:16;99123.66;;;9.07;78.21
24336;BME280;33098;52.400;16.880;2023-01-15T04:27:42;99133.02;;;9.05;78.15
24336;BME280;33098;52.400;16.880;2023-01-15T04:30:09;99127.17;;;8.97;78.22
24336;BME280;33098;52.400;16.880;2023-01-15T04:32:36;99124.72;;;8.93;78.43
24336;BME280;33098;52.400;16.880;2023-01-15T04:35:03;99114.48;;;8.87;78.77
24336;BME280;33098;52.400;16.880;2023-01-15T04:37:30;99102.27;;;8.89;79.27
24336;BME280;33098;52.400;16.880;2023-01-15T04:39:56;99094.84;;;8.91;79.66
24336;BME280;33098;52.400;16.880;2023-01-15T04:42:23;99094.09;;;8.90;79.98
24336;BME280;33098;52.400;16.880;2023-01-15T04:45:09;99093.40;;;8.86;80.64
24336;BME280;33098;52.400;16.880;2023-01-15T04:47:35;99089.80;;;8.84;81.11
24336;BME280;33098;52.400;16.880;2023-01-15T04:50:02;99082.91;;;8.82;81.35
24336;BME280;33098;52.400;16.880;2023-01-15T04:52:28;99085.96;;;8.86;81.89
24336;BME280;33098;52.400;16.880;2023-01-15T04:54:55;99083.74;;;8.85;82.48
24336;BME280;33098;52.400;16.880;2023-01-15T04:57:22;99082.79;;;8.74;82.90
24336;BME280;33098;52.400;16.880;2023-01-15T04:59:48;99075.09;;;8.65;83.45
24336;BME280;33098;52.400;16.880;2023-01-15T05:02:18;99071.48;;;8.64;83.98
24336;BME280;33098;52.400;16.880;2023-01-15T05:04:45;99076.73;;;8.63;84.20
24336;BME280;33098;52.400;16.880;2023-01-15T05:07:12;99079.20;;;8.57;84.89
24336;BME280;33098;52.400;16.880;2023-01-15T05:09:38;99075.61;;;8.52;85.32
24336;BME280;33098;52.400;16.880;2023-01-15T05:12:05;99070.55;;;8.51;85.55
24336;BME280;33098;52.400;16.880;2023-01-15T05:14:31;99065.70;;;8.52;86.03
24336;BME280;33098;52.400;16.880;2023-01-15T05:16:58;99068.84;;;8.53;86.80
24336;BME280;33098;52.400;16.880;2023-01-15T05:19:24;99069.44;;;8.52;86.99
24336;BME280;33098;52.400;16.880;2023-01-15T05:21:52;99072.33;;;8.51;87.63
24336;BME280;33098;52.400;16.880;2023-01-15T05:24:19;99071.14;;;8.47;87.72
24336;BME280;33098;52.400;16.880;2023-01-15T05:26:48;99074.89;;;8.44;88.39
24336;BME280;33098;52.400;16.880;2023-01-15T05:29:14;99073.98;;;8.41;88.92
24336;BME280;33098;52.400;16.880;2023-01-15T05:31:41;99075.61;;;8.34;89.95
24336;BME280;33098;52.400;16.880;2023-01-15T05:34:11;99075.41;;;8.22;90.99
24336;BME280;33098;52.400;16.880;2023-01-15T05:36:38;99073.77;;;8.19;91.39
24336;BME280;33098;52.400;16.880;2023-01-15T05:39:05;99077.42;;;8.18;92.86
24336;BME280;33098;52.400;16.880;2023-01-15T05:41:32;99075.59;;;8.15;93.49
24336;BME280;33098;52.400;16.880;2023-01-15T05:44:23;99076.73;;;8.12;94.05
24336;BME280;33098;52.400;16.880;2023-01-15T05:46:52;99077.45;;;8.14;94.36
24336;BME280;33098;52.400;16.880;2023-01-15T05:49:22;99073.96;;;8.11;95.16
24336;BME280;33098;52.400;16.880;2023-01-15T05:51:49;99075.66;;;8.02;96.05
24336;BME280;33098;52.400;16.880;2023-01-15T05:54:20;99066.87;;;8.01;96.07
24336;BME280;33098;52.400;16.880;2023-01-15T05:56:47;99067.02;;;7.94;96.40
24336;BME280;33098;52.400;16.880;2023-01-15T05:59:19;99066.15;;;7.88;97.86
24336;BME280;33098;52.400;16.880;2023-01-15T06:01:47;99064.88;;;7.86;99.24
24336;BME280;33098;52.400;16.880;2023-01-15T06:04:14;99057.38;;;7.83;99.77
24336;BME280;33098;52.400;16.880;2023-01-15T06:06:42;99056.66;;;7.85;99.44
24336;BME280;33098;52.400;16.880;2023-01-15T06:09:09;99054.87;;;7.86;99.64
24336;BME280;33098;52.400;16.880;2023-01-15T06:11:35;99050.25;;;7.88;99.87
24336;BME280;33098;52.400;16.880;2023-01-15T06:14:02;99047.30;;;7.89;100.00
24336;BME280;33098;52.400;16.880;2023-01-15T06:16:29;99042.15;;;7.88;100.00
24336;BME280;33098;52.400;16.880;2023-01-15T06:19:00;99042.51;;;7.82;100.00
24336;BME280;33098;52.400;16.880;2023-01-15T06:21:27;99040.39;;;7.84;100.00
24336;BME280;33098;52.400;16.880;2023-01-15T06:23:53;99042.29;;;7.88;100.00
24336;BME280;33098;52.400;16.880;2023-01-15T06:26:20;99041.06;;;7.92;100.00
24336;BME280;33098;52.400;16.880;2023-01-15T06:28:49;99041.95;;;7.88;100.00
24336;BME280;33098;52.400;16.880;2023-01-15T06:31:18;99043.41;;;7.87;100.00
24336;BME280;33098;52.400;16.880;2023-01-15T06:33:46;99039.06;;;7.84;100.00
24336;BME280;33098;52.400;16.880;2023-01-15T06:36:14;99043.48;;;7.83;100.00
24336;BME280;33098;52.400;16.880;2023-01-15T06:38:42;99042.31;;;7.84;100.00
24336;BME280;33098;52.400;16.880;2023-01-15T06:41:13;99044.25;;;7.84;100.00
24336;BME280;33098;52.400;16.880;2023-01-15T06:43:59;99042.67;;;7.84;100.00
24336;BME280;33098;52.400;16.880;2023-01-15T06:46:46;99039.55;;;7.87;100.00
24336;BME280;33098;52.400;16.880;2023-01-15T06:49:33;99039.16;;;7.91;100.00
24336;BME280;33098;52.400;16.880;2023-01-15T06:52:01;99037.52;;;7.98;100.00
24336;BME280;33098;52.400;16.880;2023-01-15T06:54:28;99036.31;;;8.01;100.00
24336;BME280;33098;52.400;16.880;2023-01-15T06:56:55;99029.05;;;8.04;100.00
24336;BME280;33098;52.400;16.880;2023-01-15T06:59:21;99033.35;;;8.05;100.00
24336;BME280;33098;52.400;16.880;2023-01-15T07:01:48;99033.91;;;8.05;100.00
24336;BME280;33098;52.400;16.880;2023-01-15T07:04:14;99033.10;;;8.06;100.00
24336;BME280;33098;52.400;16.880;2023-01-15T07:06:41;99028.48;;;8.08;100.00
24336;BME280;33098;52.400;16.880;2023-01-15T07:09:08;99031.91;;;8.15;100.00
24336;BME280;33098;52.400;16.880;2023-01-15T07:11:37;99040.91;;;8.19;100.00
24336;BME280;33098;52.400;16.880;2023-01-15T07:14:21;99038.39;;;8.22;100.00
24336;BME280;33098;52.400;16.880;2023-01-15T07:16:49;99038.08;;;8.29;100.00
24336;BME280;33098;52.400;16.880;2023-01-15T07:19:16;99037.05;;;8.30;100.00
24336;BME280;33098;52.400;16.880;2023-01-15T07:21:43;99034.84;;;8.33;100.00
24336;BME280;33098;52.400;16.880;2023-01-15T07:24:10;99031.17;;;8.35;100.00
24336;BME280;33098;52.400;16.880;2023-01-15T07:26:38;99030.77;;;8.39;100.00
24336;BME280;33098;52.400;16.880;2023-01-15T07:29:05;99023.10;;;8.40;100.00
24336;BME280;33098;52.400;16.880;2023-01-15T07:31:32;99020.27;;;8.42;100.00
24336;BME280;33098;52.400;16.880;2023-01-15T07:33:59;99026.67;;;8.37;100.00
24336;BME280;33098;52.400;16.880;2023-01-15T07:36:26;99028.72;;;8.36;100.00
24336;BME280;33098;52.400;16.880;2023-01-15T07:38:52;99029.66;;;8.33;100.00
24336;BME280;33098;52.400;16.880;2023-01-15T07:41:19;99027.88;;;8.34;100.00
24336;BME280;33098;52.400;16.880;2023-01-15T07:44:04;99023.41;;;8.34;100.00
24336;BME280;33098;52.400;16.880;2023-01-15T07:46:51;99022.60;;;8.33;100.00
24336;BME280;33098;52.400;16.880;2023-01-15T07:49:36;99022.98;;;8.32;100.00
24336;BME280;33098;52.400;16.880;2023-01-15T07:54:41;99018.79;;;8.33;100.00
24336;BME280;33098;52.400;16.880;2023-01-15T07:57:09;99025.36;;;8.36;100.00
24336;BME280;33098;52.400;16.880;2023-01-15T07:59:36;99014.38;;;8.39;100.00
24336;BME280;33098;52.400;16.880;2023-01-15T08:02:03;99022.94;;;8.38;100.00
24336;BME280;33098;52.400;16.880;2023-01-15T08:04:30;99020.51;;;8.40;100.00
24336;BME280;33098;52.400;16.880;2023-01-15T08:07:01;99020.09;;;8.42;100.00
24336;BME280;33098;52.400;16.880;2023-01-15T08:09:28;99020.50;;;8.46;100.00
24336;BME280;33098;52.400;16.880;2023-01-15T08:11:58;99020.84;;;8.46;100.00
24336;BME280;33098;52.400;16.880;2023-01-15T08:14:43;99020.45;;;8.42;100.00
24336;BME280;33098;52.400;16.880;2023-01-15T08:17:32;99013.92;;;8.38;100.00
24336;BME280;33098;52.400;16.880;2023-01-15T08:20:00;99013.28;;;8.37;100.00
24336;BME280;33098;52.400;16.880;2023-01-15T08:22:27;99014.61;;;8.42;100.00
24336;BME280;33098;52.400;16.880;2023-01-15T08:24:53;99011.92;;;8.46;100.00
24336;BME280;33098;52.400;16.880;2023-01-15T08:27:21;99007.88;;;8.52;100.00
24336;BME280;33098;52.400;16.880;2023-01-15T08:29:48;99019.17;;;8.56;100.00
24336;BME280;33098;52.400;16.880;2023-01-15T08:32:15;99017.67;;;8.53;100.00
24336;BME280;33098;52.400;16.880;2023-01-15T08:34:41;99022.51;;;8.53;100.00
24336;BME280;33098;52.400;16.880;2023-01-15T08:37:08;99016.98;;;8.49;100.00
24336;BME280;33098;52.400;16.880;2023-01-15T08:39:37;99018.08;;;8.49;100.00
24336;BME280;33098;52.400;16.880;2023-01-15T08:42:04;99009.60;;;8.53;100.00
24336;BME280;33098;52.400;16.880;2023-01-15T08:44:31;99011.52;;;8.57;100.00
24336;BME280;33098;52.400;16.880;2023-01-15T08:46:58;99009.51;;;8.55;100.00
24336;BME280;33098;52.400;16.880;2023-01-15T08:49:25;99007.39;;;8.56;100.00
24336;BME280;33098;52.400;16.880;2023-01-15T08:51:52;99007.10;;;8.56;100.00
24336;BME280;33098;52.400;16.880;2023-01-15T08:54:20;99008.67;;;8.57;100.00
24336;BME280;33098;52.400;16.880;2023-01-15T08:56:47;99011.48;;;8.63;100.00
24336;BME280;33098;52.400;16.880;2023-01-15T08:59:13;99013.07;;;8.70;100.00
24336;BME280;33098;52.400;16.880;2023-01-15T09:01:43;99011.13;;;8.72;100.00
24336;BME280;33098;52.400;16.880;2023-01-15T09:04:14;99019.55;;;8.75;100.00
24336;BME280;33098;52.400;16.880;2023-01-15T09:06:42;99016.54;;;8.72;100.00
24336;BME280;33098;52.400;16.880;2023-01-15T09:09:09;99020.40;;;8.70;100.00
24336;BME280;33098;52.400;16.880;2023-01-15T09:11:36;99030.83;;;8.70;100.00
24336;BME280;33098;52.400;16.880;2023-01-15T09:14:07;99028.89;;;8.67;100.00
24336;BME280;33098;52.400;16.880;2023-01-15T09:16:35;99032.15;;;8.66;100.00
24336;BME280;33098;52.400;16.880;2023-01-15T09:19:03;99035.70;;;8.66;100.00
24336;BME280;33098;52.400;16.880;2023-01-15T09:21:30;99041.88;;;8.67;100.00
24336;BME280;33098;52.400;16.880;2023-01-15T09:23:57;99048.50;;;8.68;100.00
24336;BME280;33098;52.400;16.880;2023-01-15T09:26:31;99055.34;;;8.66;100.00
24336;BME280;33098;52.400;16.880;2023-01-15T09:28:59;99073.14;;;8.65;100.00
24336;BME280;33098;52.400;16.880;2023-01-15T09:31:27;99085.92;;;8.65;100.00
24336;BME280;33098;52.400;16.880;2023-01-15T09:33:54;99093.19;;;8.57;100.00
24336;BME280;33098;52.400;16.880;2023-01-15T09:36:24;99101.70;;;8.51;100.00
24336;BME280;33098;52.400;16.880;2023-01-15T09:38:51;99110.20;;;8.47;100.00
24336;BME280;33098;52.400;16.880;2023-01-15T09:41:18;99118.55;;;8.46;100.00
24336;BME280;33098;52.400;16.880;2023-01-15T09:46:52;99123.98;;;8.47;100.00
24336;BME280;33098;52.400;16.880;2023-01-15T09:49:39;99133.14;;;8.41;100.00
24336;BME280;33098;52.400;16.880;2023-01-15T09:52:15;99147.80;;;8.35;100.00
24336;BME280;33098;52.400;16.880;2023-01-15T09:55:04;99156.67;;;8.31;100.00
24336;BME280;33098;52.400;16.880;2023-01-15T09:57:36;99161.81;;;8.28;100.00
24336;BME280;33098;52.400;16.880;2023-01-15T10:00:05;99166.35;;;8.27;100.00
24336;BME280;33098;52.400;16.880;2023-01-15T10:02:42;99174.19;;;8.27;100.00
24336;BME280;33098;52.400;16.880;2023-01-15T10:10:17;99179.92;;;8.20;100.00
24336;BME280;33098;52.400;16.880;2023-01-15T10:12:46;99177.10;;;8.14;100.00
24336;BME280;33098;52.400;16.880;2023-01-15T10:15:24;99176.16;;;8.07;100.00
24336;BME280;33098;52.400;16.880;2023-01-15T10:17:55;99184.17;;;7.98;100.00
24336;BME280;33098;52.400;16.880;2023-01-15T10:23:34;99188.57;;;7.80;100.00
24336;BME280;33098;52.400;16.880;2023-01-15T10:26:11;99186.65;;;7.61;100.00
24336;BME280;33098;52.400;16.880;2023-01-15T10:31:40;99175.55;;;7.50;100.00
24336;BME280;33098;52.400;16.880;2023-01-15T10:37:13;99171.61;;;7.26;100.00
24336;BME280;33098;52.400;16.880;2023-01-15T10:44:54;99184.70;;;7.13;100.00
24336;BME280;33098;52.400;16.880;2023-01-15T10:47:29;99187.19;;;7.05;100.00
24336;BME280;33098;52.400;16.880;2023-01-15T10:50:12;99193.25;;;6.93;100.00
24336;BME280;33098;52.400;16.880;2023-01-15T10:52:42;99194.00;;;6.69;100.00
24336;BME280;33098;52.400;16.880;2023-01-15T10:55:25;99200.13;;;6.57;100.00
24336;BME280;33098;52.400;16.880;2023-01-15T11:00:47;99198.04;;;6.32;100.00
24336;BME280;33098;52.400;16.880;2023-01-15T11:03:20;99188.95;;;6.31;100.00
24336;BME280;33098;52.400;16.880;2023-01-15T11:05:47;99195.42;;;6.30;100.00
24336;BME280;33098;52.400;16.880;2023-01-15T11:08:24;99194.83;;;6.24;100.00
24336;BME280;33098;52.400;16.880;2023-01-15T11:11:13;99193.61;;;6.30;100.00
24336;BME280;33098;52.400;16.880;2023-01-15T11:13:52;99197.96;;;6.44;100.00
24336;BME280;33098;52.400;16.880;2023-01-15T11:16:39;99197.59;;;6.47;100.00
24336;BME280;33098;52.400;16.880;2023-01-15T11:19:30;99197.04;;;6.56;100.00
24336;BME280;33098;52.400;16.880;2023-01-15T11:22:13;99200.01;;;6.49;100.00
24336;BME280;33098;52.400;16.880;2023-01-15T11:27:22;99206.44;;;6.40;100.00
24336;BME280;33098;52.400;16.880;2023-01-15T11:29:55;99212.61;;;6.48;100.00
24336;BME280;33098;52.400;16.880;2023-01-15T11:32:28;99220.56;;;6.39;100.00
24336;BME280;33098;52.400;16.880;2023-01-15T11:35:21;99221.09;;;6.33;100.00
24336;BME280;33098;52.400;16.880;2023-01-15T11:37:46;99217.09;;;6.26;100.00
24336;BME280;33098;52.400;16.880;2023-01-15T11:40:21;99219.48;;;6.26;100.00
24336;BME280;33098;52.400;16.880;2023-01-15T11:42:50;99227.95;;;6.21;100.00
24336;BME280;33098;52.400;16.880;2023-01-15T11:45:51;99236.48;;;6.34;100.00
24336;BME280;33098;52.400;16.880;2023-01-15T11:48:46;99226.81;;;6.38;100.00
24336;BME280;33098;52.400;16.880;2023-01-15T11:51:39;99220.37;;;6.48;100.00
24336;BME280;33098;52.400;16.880;2023-01-15T11:54:09;99211.89;;;6.55;100.00
24336;BME280;33098;52.400;16.880;2023-01-15T11:56:41;99226.23;;;6.59;100.00
24336;BME280;33098;52.400;16.880;2023-01-15T11:59:11;99234.50;;;6.59;100.00
24336;BME280;33098;52.400;16.880;2023-01-15T12:01:47;99245.55;;;6.66;100.00
24336;BME280;33098;52.400;16.880;2023-01-15T12:04:48;99248.27;;;6.69;100.00
24336;BME280;33098;52.400;16.880;2023-01-15T12:07:17;99246.91;;;6.69;100.00
24336;BME280;33098;52.400;16.880;2023-01-15T12:10:15;99246.44;;;6.77;100.00
24336;BME280;33098;52.400;16.880;2023-01-15T12:13:04;99248.55;;;6.77;100.00
24336;BME280;33098;52.400;16.880;2023-01-15T12:18:48;99261.01;;;6.78;100.00
24336;BME280;33098;52.400;16.880;2023-01-15T12:21:38;99268.39;;;6.80;100.00
24336;BME280;33098;52.400;16.880;2023-01-15T12:29:23;99271.08;;;6.71;100.00
24336;BME280;33098;52.400;16.880;2023-01-15T12:31:58;99272.96;;;6.71;100.00
24336;BME280;33098;52.400;16.880;2023-01-15T12:34:35;99274.02;;;6.69;100.00
24336;BME280;33098;52.400;16.880;2023-01-15T12:37:16;99277.41;;;6.64;100.00
24336;BME280;33098;52.400;16.880;2023-01-15T12:42:40;99277.63;;;6.51;100.00
24336;BME280;33098;52.400;16.880;2023-01-15T12:45:30;99290.44;;;6.47;100.00
24336;BME280;33098;52.400;16.880;2023-01-15T12:50:49;99269.75;;;6.44;100.00
24336;BME280;33098;52.400;16.880;2023-01-15T12:53:24;99252.73;;;6.45;100.00
24336;BME280;33098;52.400;16.880;2023-01-15T13:00:59;99257.06;;;6.48;100.00
24336;BME280;33098;52.400;16.880;2023-01-15T13:03:46;99264.81;;;6.59;100.00
24336;BME280;33098;52.400;16.880;2023-01-15T13:06:16;99269.11;;;6.58;100.00
24336;BME280;33098;52.400;16.880;2023-01-15T13:09:04;99265.14;;;6.55;100.00
24336;BME280;33098;52.400;16.880;2023-01-15T13:11:34;99261.45;;;6.50;100.00
24336;BME280;33098;52.400;16.880;2023-01-15T13:14:00;99256.80;;;6.51;100.00
24336;BME280;33098;52.400;16.880;2023-01-15T13:16:39;99254.72;;;6.49;100.00
24336;BME280;33098;52.400;16.880;2023-01-15T13:19:25;99260.58;;;6.48;100.00
24336;BME280;33098;52.400;16.880;2023-01-15T13:22:02;99258.25;;;6.49;100.00
24336;BME280;33098;52.400;16.880;2023-01-15T13:24:55;99263.16;;;6.49;100.00
24336;BME280;33098;52.400;16.880;2023-01-15T13:30:39;99274.17;;;6.54;100.00
24336;BME280;33098;52.400;16.880;2023-01-15T13:36:09;99281.84;;;6.42;100.00
24336;BME280;33098;52.400;16.880;2023-01-15T13:38:44;99278.19;;;6.39;100.00
24336;BME280;33098;52.400;16.880;2023-01-15T13:41:19;99282.68;;;6.41;100.00
24336;BME280;33098;52.400;16.880;2023-01-15T13:44:22;99277.39;;;6.43;100.00
24336;BME280;33098;52.400;16.880;2023-01-15T13:47:07;99291.19;;;6.40;100.00
24336;BME280;33098;52.400;16.880;2023-01-15T13:49:43;99297.02;;;6.37;100.00
24336;BME280;33098;52.400;16.880;2023-01-15T13:52:27;99297.04;;;6.32;100.00
24336;BME280;33098;52.400;16.880;2023-01-15T13:55:15;99299.84;;;6.31;100.00
24336;BME280;33098;52.400;16.880;2023-01-15T13:57:45;99293.09;;;6.29;100.00
24336;BME280;33098;52.400;16.880;2023-01-15T14:00:32;99285.02;;;6.27;100.00
24336;BME280;33098;52.400;16.880;2023-01-15T14:03:01;99285.08;;;6.30;100.00
24336;BME280;33098;52.400;16.880;2023-01-15T14:05:32;99286.29;;;6.28;100.00
24336;BME280;33098;52.400;16.880;2023-01-15T14:08:00;99277.38;;;6.30;100.00
24336;BME280;33098;52.400;16.880;2023-01-15T14:13:25;99264.70;;;6.31;100.00
24336;BME280;33098;52.400;16.880;2023-01-15T14:21:25;99284.91;;;6.15;100.00
24336;BME280;33098;52.400;16.880;2023-01-15T14:29:51;99306.77;;;6.10;100.00
24336;BME280;33098;52.400;16.880;2023-01-15T14:35:19;99324.23;;;6.07;100.00
24336;BME280;33098;52.400;16.880;2023-01-15T14:37:53;99323.83;;;6.05;100.00
24336;BME280;33098;52.400;16.880;2023-01-15T14:40:33;99312.25;;;6.04;100.00
24336;BME280;33098;52.400;16.880;2023-01-15T14:43:06;99315.48;;;6.06;100.00
24336;BME280;33098;52.400;16.880;2023-01-15T14:50:44;99287.14;;;6.11;100.00
24336;BME280;33098;52.400;16.880;2023-01-15T14:56:05;99303.55;;;5.92;100.00
24336;BME280;33098;52.400;16.880;2023-01-15T15:01:50;99290.65;;;5.74;100.00
24336;BME280;33098;52.400;16.880;2023-01-15T15:07:33;99301.64;;;5.78;100.00
24336;BME280;33098;52.400;16.880;2023-01-15T15:18:07;99284.05;;;5.84;100.00